sensor_id;sensor_type;location;lat;lon;timestamp;P1;durP1;ratioP1;P2;durP2;ratioP2
78382;SDS011;67668;52.294;4.692;2023-02-15T00:00:08;48.30;;;26.35;;
78382;SDS011;67668;52.294;4.692;2023-02-15T00:02:35;52.95;;;28.63;;
78382;SDS011;67668;52.294;4.692;2023-02-15T00:05:01;49.77;;;26.73;;
78382;SDS011;67668;52.294;4.692;2023-02-15T00:07:26;47.95;;;28.10;;
78382;SDS011;67668;52.294;4.692;2023-02-15T00:09:52;50.60;;;27.88;;
78382;SDS011;67668;52.294;4.692;2023-02-15T00:12:17;52.70;;;28.83;;
78382;SDS011;67668;52.294;4.692;2023-02-15T00:17:08;44.30;;;26.63;;
78382;SDS011;67668;52.294;4.692;2023-02-15T00:19:33;50.00;;;28.53;;
78382;SDS011;67668;52.294;4.692;2023-02-15T00:21:59;49.47;;;27.23;;
78382;SDS011;67668;52.294;4.692;2023-02-15T00:24:25;48.13;;;27.17;;
78382;SDS011;67668;52.294;4.692;2023-02-15T00:26:51;50.40;;;27.55;;
78382;SDS011;67668;52.294;4.692;2023-02-15T00:29:17;50.20;;;28.90;;
78382;SDS011;67668;52.294;4.692;2023-02-15T00:31:43;51.00;;;27.98;;
78382;SDS011;67668;52.294;4.692;2023-02-15T00:34:16;46.47;;;27.45;;
78382;SDS011;67668;52.294;4.692;2023-02-15T00:36:44;47.40;;;27.67;;
78382;SDS011;67668;52.294;4.692;2023-02-15T00:39:10;46.30;;;27.50;;
78382;SDS011;67668;52.294;4.692;2023-02-15T00:41:36;49.08;;;27.25;;
78382;SDS011;67668;52.294;4.692;2023-02-15T00:44:02;51.75;;;28.92;;
78382;SDS011;67668;52.294;4.692;2023-02-15T00:48:55;47.73;;;26.60;;
78382;SDS011;67668;52.294;4.692;2023-02-15T00:51:20;49.78;;;24.75;;
78382;SDS011;67668;52.294;4.692;2023-02-15T00:53:46;49.70;;;26.07;;
78382;SDS011;67668;52.294;4.692;2023-02-15T00:56:11;49.15;;;27.27;;
78382;SDS011;67668;52.294;4.692;2023-02-15T00:58:36;47.83;;;26.70;;
78382;SDS011;67668;52.294;4.692;2023-02-15T01:03:37;46.67;;;27.23;;
78382;SDS011;67668;52.294;4.692;2023-02-15T01:06:04;44.80;;;26.60;;
78382;SDS011;67668;52.294;4.692;2023-02-15T01:08:29;48.55;;;26.30;;
78382;SDS011;67668;52.294;4.692;2023-02-15T01:10:55;46.83;;;27.63;;
78382;SDS011;67668;52.294;4.692;2023-02-15T01:13:21;44.38;;;25.80;;
78382;SDS011;67668;52.294;4.692;2023-02-15T01:15:51;46.53;;;26.85;;
78382;SDS011;67668;52.294;4.692;2023-02-15T01:18:18;49.55;;;26.00;;
78382;SDS011;67668;52.294;4.692;2023-02-15T01:20:43;46.57;;;25.80;;
78382;SDS011;67668;52.294;4.692;2023-02-15T01:23:09;51.05;;;27.38;;
78382;SDS011;67668;52.294;4.692;2023-02-15T01:25:34;48.30;;;27.48;;
78382;SDS011;67668;52.294;4.692;2023-02-15T01:28:01;44.35;;;25.20;;
78382;SDS011;67668;52.294;4.692;2023-02-15T01:30:27;44.15;;;25.40;;
78382;SDS011;67668;52.294;4.692;2023-02-15T01:32:52;46.85;;;26.15;;
78382;SDS011;67668;52.294;4.692;2023-02-15T01:35:18;45.20;;;25.23;;
78382;SDS011;67668;52.294;4.692;2023-02-15T01:37:43;47.35;;;26.48;;
78382;SDS011;67668;52.294;4.692;2023-02-15T01:40:11;45.88;;;25.48;;
78382;SDS011;67668;52.294;4.692;2023-02-15T01:42:39;43.58;;;24.52;;
78382;SDS011;67668;52.294;4.692;2023-02-15T01:45:14;43.92;;;24.73;;
78382;SDS011;67668;52.294;4.692;2023-02-15T01:47:49;38.70;;;24.02;;
78382;SDS011;67668;52.294;4.692;2023-02-15T01:53:14;42.33;;;24.07;;
78382;SDS011;67668;52.294;4.692;2023-02-15T01:55:45;45.72;;;25.35;;
78382;SDS011;67668;52.294;4.692;2023-02-15T01:58:15;45.55;;;24.92;;
78382;SDS011;67668;52.294;4.692;2023-02-15T02:03:07;39.88;;;22.25;;
78382;SDS011;67668;52.294;4.692;2023-02-15T02:05:32;44.30;;;24.23;;
78382;SDS011;67668;52.294;4.692;2023-02-15T02:07:58;48.03;;;25.05;;
78382;SDS011;67668;52.294;4.692;2023-02-15T02:10:26;42.72;;;23.58;;
78382;SDS011;67668;52.294;4.692;2023-02-15T02:12:52;41.33;;;22.38;;
78382;SDS011;67668;52.294;4.692;2023-02-15T02:15:23;47.47;;;25.73;;
78382;SDS011;67668;52.294;4.692;2023-02-15T02:45:56;32.17;;;20.40;;
78382;SDS011;67668;52.294;4.692;2023-02-15T02:48:26;33.55;;;19.10;;
78382;SDS011;67668;52.294;4.692;2023-02-15T02:50:55;37.30;;;20.48;;
78382;SDS011;67668;52.294;4.692;2023-02-15T02:53:20;33.80;;;18.93;;
78382;SDS011;67668;52.294;4.692;2023-02-15T02:55:47;34.90;;;20.38;;
78382;SDS011;67668;52.294;4.692;2023-02-15T03:03:23;33.53;;;19.55;;
78382;SDS011;67668;52.294;4.692;2023-02-15T03:05:57;32.75;;;18.80;;
78382;SDS011;67668;52.294;4.692;2023-02-15T03:08:27;35.55;;;19.02;;
78382;SDS011;67668;52.294;4.692;2023-02-15T03:10:58;36.45;;;20.15;;
78382;SDS011;67668;52.294;4.692;2023-02-15T03:13:25;32.25;;;17.75;;
78382;SDS011;67668;52.294;4.692;2023-02-15T03:15:52;36.65;;;20.13;;
78382;SDS011;67668;52.294;4.692;2023-02-15T03:18:39;32.38;;;17.20;;
78382;SDS011;67668;52.294;4.692;2023-02-15T03:21:18;37.90;;;18.88;;
78382;SDS011;67668;52.294;4.692;2023-02-15T03:23:50;35.15;;;18.75;;
78382;SDS011;67668;52.294;4.692;2023-02-15T03:26:21;32.72;;;17.98;;
78382;SDS011;67668;52.294;4.692;2023-02-15T03:28:49;35.03;;;18.65;;
78382;SDS011;67668;52.294;4.692;2023-02-15T03:31:18;31.52;;;19.38;;
78382;SDS011;67668;52.294;4.692;2023-02-15T03:33:57;31.15;;;18.25;;
78382;SDS011;67668;52.294;4.692;2023-02-15T03:38:58;38.43;;;19.90;;
78382;SDS011;67668;52.294;4.692;2023-02-15T03:41:32;30.98;;;18.50;;
78382;SDS011;67668;52.294;4.692;2023-02-15T03:44:11;32.75;;;18.90;;
78382;SDS011;67668;52.294;4.692;2023-02-15T03:46:45;30.52;;;18.65;;
78382;SDS011;67668;52.294;4.692;2023-02-15T03:51:48;31.95;;;17.73;;
78382;SDS011;67668;52.294;4.692;2023-02-15T03:54:18;31.08;;;17.50;;
78382;SDS011;67668;52.294;4.692;2023-02-15T03:57:06;33.08;;;18.67;;
78382;SDS011;67668;52.294;4.692;2023-02-15T03:59:52;33.50;;;19.08;;
78382;SDS011;67668;52.294;4.692;2023-02-15T04:02:38;32.63;;;18.10;;
78382;SDS011;67668;52.294;4.692;2023-02-15T04:05:10;32.25;;;18.27;;
78382;SDS011;67668;52.294;4.692;2023-02-15T04:07:35;31.70;;;17.23;;
78382;SDS011;67668;52.294;4.692;2023-02-15T04:10:01;33.13;;;19.08;;
78382;SDS011;67668;52.294;4.692;2023-02-15T04:12:45;41.55;;;19.60;;
78382;SDS011;67668;52.294;4.692;2023-02-15T04:15:13;31.93;;;18.20;;
78382;SDS011;67668;52.294;4.692;2023-02-15T04:17:57;27.58;;;16.45;;
78382;SDS011;67668;52.294;4.692;2023-02-15T04:20:22;36.07;;;18.87;;
78382;SDS011;67668;52.294;4.692;2023-02-15T04:23:07;32.78;;;17.60;;
78382;SDS011;67668;52.294;4.692;2023-02-15T04:25:51;36.83;;;19.83;;
78382;SDS011;67668;52.294;4.692;2023-02-15T04:28:17;37.00;;;18.70;;
78382;SDS011;67668;52.294;4.692;2023-02-15T04:30:42;33.58;;;19.83;;
78382;SDS011;67668;52.294;4.692;2023-02-15T04:33:08;35.10;;;18.92;;
78382;SDS011;67668;52.294;4.692;2023-02-15T04:35:33;37.90;;;18.60;;
78382;SDS011;67668;52.294;4.692;2023-02-15T04:37:59;35.22;;;19.95;;
78382;SDS011;67668;52.294;4.692;2023-02-15T04:40:25;33.97;;;18.30;;
78382;SDS011;67668;52.294;4.692;2023-02-15T04:42:50;32.78;;;19.00;;
78382;SDS011;67668;52.294;4.692;2023-02-15T04:45:16;33.53;;;18.15;;
78382;SDS011;67668;52.294;4.692;2023-02-15T04:50:07;33.33;;;18.17;;
78382;SDS011;67668;52.294;4.692;2023-02-15T04:52:33;30.20;;;16.77;;
78382;SDS011;67668;52.294;4.692;2023-02-15T04:54:58;31.10;;;17.80;;
78382;SDS011;67668;52.294;4.692;2023-02-15T04:57:24;32.80;;;18.83;;
78382;SDS011;67668;52.294;4.692;2023-02-15T04:59:49;32.70;;;19.20;;
78382;SDS011;67668;52.294;4.692;2023-02-15T05:02:14;35.50;;;19.30;;
78382;SDS011;67668;52.294;4.692;2023-02-15T05:04:40;37.17;;;20.27;;
78382;SDS011;67668;52.294;4.692;2023-02-15T05:07:05;35.97;;;18.80;;
78382;SDS011;67668;52.294;4.692;2023-02-15T05:09:31;34.55;;;17.50;;
78382;SDS011;67668;52.294;4.692;2023-02-15T05:11:56;37.35;;;19.25;;
78382;SDS011;67668;52.294;4.692;2023-02-15T05:14:21;35.45;;;19.25;;
78382;SDS011;67668;52.294;4.692;2023-02-15T05:16:47;32.00;;;18.85;;
78382;SDS011;67668;52.294;4.692;2023-02-15T05:19:13;33.07;;;17.03;;
78382;SDS011;67668;52.294;4.692;2023-02-15T05:21:38;34.33;;;17.50;;
78382;SDS011;67668;52.294;4.692;2023-02-15T05:24:04;35.92;;;19.45;;
78382;SDS011;67668;52.294;4.692;2023-02-15T05:26:50;34.35;;;18.83;;
78382;SDS011;67668;52.294;4.692;2023-02-15T05:29:34;34.80;;;18.67;;
78382;SDS011;67668;52.294;4.692;2023-02-15T05:31:59;33.88;;;18.17;;
78382;SDS011;67668;52.294;4.692;2023-02-15T05:34:25;34.00;;;18.77;;
78382;SDS011;67668;52.294;4.692;2023-02-15T05:36:50;35.23;;;19.37;;
78382;SDS011;67668;52.294;4.692;2023-02-15T05:39:15;38.58;;;19.33;;
78382;SDS011;67668;52.294;4.692;2023-02-15T05:41:41;35.63;;;17.50;;
78382;SDS011;67668;52.294;4.692;2023-02-15T05:44:06;38.05;;;18.90;;
78382;SDS011;67668;52.294;4.692;2023-02-15T05:46:32;35.05;;;19.33;;
78382;SDS011;67668;52.294;4.692;2023-02-15T05:48:57;38.55;;;19.23;;
78382;SDS011;67668;52.294;4.692;2023-02-15T05:51:22;35.67;;;18.73;;
78382;SDS011;67668;52.294;4.692;2023-02-15T05:53:48;32.33;;;17.77;;
78382;SDS011;67668;52.294;4.692;2023-02-15T05:56:13;33.58;;;17.80;;
78382;SDS011;67668;52.294;4.692;2023-02-15T05:58:39;31.13;;;17.97;;
78382;SDS011;67668;52.294;4.692;2023-02-15T06:03:35;32.35;;;17.25;;
78382;SDS011;67668;52.294;4.692;2023-02-15T06:06:00;30.83;;;17.23;;
78382;SDS011;67668;52.294;4.692;2023-02-15T06:08:25;31.00;;;17.42;;
78382;SDS011;67668;52.294;4.692;2023-02-15T06:10:51;31.27;;;16.85;;
78382;SDS011;67668;52.294;4.692;2023-02-15T06:13:16;33.17;;;17.35;;
78382;SDS011;67668;52.294;4.692;2023-02-15T06:15:42;31.90;;;17.00;;
78382;SDS011;67668;52.294;4.692;2023-02-15T06:18:07;28.38;;;16.58;;
78382;SDS011;67668;52.294;4.692;2023-02-15T06:20:33;35.30;;;17.42;;
78382;SDS011;67668;52.294;4.692;2023-02-15T06:22:58;32.03;;;17.30;;
78382;SDS011;67668;52.294;4.692;2023-02-15T06:25:23;31.40;;;17.13;;
78382;SDS011;67668;52.294;4.692;2023-02-15T06:27:49;34.05;;;17.63;;
78382;SDS011;67668;52.294;4.692;2023-02-15T06:30:15;31.15;;;17.33;;
78382;SDS011;67668;52.294;4.692;2023-02-15T06:32:40;42.10;;;18.38;;
78382;SDS011;67668;52.294;4.692;2023-02-15T06:35:06;29.20;;;16.20;;
78382;SDS011;67668;52.294;4.692;2023-02-15T06:37:31;31.17;;;15.57;;
78382;SDS011;67668;52.294;4.692;2023-02-15T06:39:57;32.30;;;17.63;;
78382;SDS011;67668;52.294;4.692;2023-02-15T06:42:23;29.40;;;15.98;;
78382;SDS011;67668;52.294;4.692;2023-02-15T06:44:49;31.67;;;16.90;;
78382;SDS011;67668;52.294;4.692;2023-02-15T06:47:15;26.00;;;15.40;;
78382;SDS011;67668;52.294;4.692;2023-02-15T06:49:40;36.90;;;17.27;;
78382;SDS011;67668;52.294;4.692;2023-02-15T06:52:05;36.37;;;17.53;;
78382;SDS011;67668;52.294;4.692;2023-02-15T06:54:31;34.30;;;17.75;;
78382;SDS011;67668;52.294;4.692;2023-02-15T06:56:56;27.63;;;16.23;;
78382;SDS011;67668;52.294;4.692;2023-02-15T06:59:22;37.60;;;17.13;;
78382;SDS011;67668;52.294;4.692;2023-02-15T07:01:47;34.63;;;17.23;;
78382;SDS011;67668;52.294;4.692;2023-02-15T07:04:14;29.27;;;16.13;;
78382;SDS011;67668;52.294;4.692;2023-02-15T07:06:39;32.15;;;17.00;;
78382;SDS011;67668;52.294;4.692;2023-02-15T07:09:05;34.58;;;16.80;;
78382;SDS011;67668;52.294;4.692;2023-02-15T07:11:30;27.63;;;16.30;;
78382;SDS011;67668;52.294;4.692;2023-02-15T07:14:16;28.52;;;16.13;;
78382;SDS011;67668;52.294;4.692;2023-02-15T07:16:41;32.03;;;17.73;;
78382;SDS011;67668;52.294;4.692;2023-02-15T07:19:07;32.13;;;16.93;;
78382;SDS011;67668;52.294;4.692;2023-02-15T07:21:33;37.47;;;17.05;;
78382;SDS011;67668;52.294;4.692;2023-02-15T07:23:59;29.92;;;17.52;;
78382;SDS011;67668;52.294;4.692;2023-02-15T07:26:25;39.78;;;18.20;;
78382;SDS011;67668;52.294;4.692;2023-02-15T07:28:50;34.57;;;18.03;;
78382;SDS011;67668;52.294;4.692;2023-02-15T07:31:16;32.30;;;17.57;;
78382;SDS011;67668;52.294;4.692;2023-02-15T07:33:41;33.67;;;16.20;;
78382;SDS011;67668;52.294;4.692;2023-02-15T07:36:07;33.88;;;17.38;;
78382;SDS011;67668;52.294;4.692;2023-02-15T07:38:35;31.45;;;17.00;;
78382;SDS011;67668;52.294;4.692;2023-02-15T07:41:02;33.50;;;16.77;;
78382;SDS011;67668;52.294;4.692;2023-02-15T07:43:30;31.67;;;17.48;;
78382;SDS011;67668;52.294;4.692;2023-02-15T07:46:01;32.83;;;17.90;;
78382;SDS011;67668;52.294;4.692;2023-02-15T07:48:27;35.22;;;18.38;;
78382;SDS011;67668;52.294;4.692;2023-02-15T07:50:53;32.95;;;16.92;;
78382;SDS011;67668;52.294;4.692;2023-02-15T07:53:18;31.10;;;17.40;;
78382;SDS011;67668;52.294;4.692;2023-02-15T07:55:43;36.63;;;20.00;;
78382;SDS011;67668;52.294;4.692;2023-02-15T07:58:09;35.97;;;19.55;;
78382;SDS011;67668;52.294;4.692;2023-02-15T08:00:34;39.23;;;17.97;;
78382;SDS011;67668;52.294;4.692;2023-02-15T08:03:22;33.67;;;18.23;;
78382;SDS011;67668;52.294;4.692;2023-02-15T08:05:49;39.08;;;20.17;;
78382;SDS011;67668;52.294;4.692;2023-02-15T08:08:14;31.58;;;18.30;;
78382;SDS011;67668;52.294;4.692;2023-02-15T08:11:00;36.70;;;19.08;;
78382;SDS011;67668;52.294;4.692;2023-02-15T08:13:50;37.30;;;18.73;;
78382;SDS011;67668;52.294;4.692;2023-02-15T08:16:22;35.40;;;19.67;;
78382;SDS011;67668;52.294;4.692;2023-02-15T08:18:52;37.83;;;19.20;;
78382;SDS011;67668;52.294;4.692;2023-02-15T08:21:19;37.08;;;19.25;;
78382;SDS011;67668;52.294;4.692;2023-02-15T08:23:45;40.28;;;19.42;;
78382;SDS011;67668;52.294;4.692;2023-02-15T08:26:11;35.97;;;18.92;;
78382;SDS011;67668;52.294;4.692;2023-02-15T08:28:36;41.90;;;20.63;;
78382;SDS011;67668;52.294;4.692;2023-02-15T08:31:05;39.65;;;21.60;;
78382;SDS011;67668;52.294;4.692;2023-02-15T08:33:32;40.55;;;21.67;;
78382;SDS011;67668;52.294;4.692;2023-02-15T08:38:27;38.70;;;20.75;;
78382;SDS011;67668;52.294;4.692;2023-02-15T08:40:53;41.03;;;21.83;;
78382;SDS011;67668;52.294;4.692;2023-02-15T08:43:18;47.00;;;22.70;;
78382;SDS011;67668;52.294;4.692;2023-02-15T08:45:43;39.90;;;21.60;;
78382;SDS011;67668;52.294;4.692;2023-02-15T08:48:09;40.45;;;22.05;;
78382;SDS011;67668;52.294;4.692;2023-02-15T08:50:34;40.03;;;21.88;;
78382;SDS011;67668;52.294;4.692;2023-02-15T08:53:00;39.95;;;23.65;;
78382;SDS011;67668;52.294;4.692;2023-02-15T08:55:25;38.50;;;20.52;;
78382;SDS011;67668;52.294;4.692;2023-02-15T08:57:50;43.80;;;22.87;;
78382;SDS011;67668;52.294;4.692;2023-02-15T09:00:17;40.88;;;21.65;;
78382;SDS011;67668;52.294;4.692;2023-02-15T09:02:43;40.60;;;23.40;;
78382;SDS011;67668;52.294;4.692;2023-02-15T09:05:08;47.83;;;23.93;;
78382;SDS011;67668;52.294;4.692;2023-02-15T09:07:35;40.45;;;22.90;;
78382;SDS011;67668;52.294;4.692;2023-02-15T09:10:00;42.83;;;20.88;;
78382;SDS011;67668;52.294;4.692;2023-02-15T09:12:25;42.80;;;22.02;;
78382;SDS011;67668;52.294;4.692;2023-02-15T09:14:51;40.47;;;22.23;;
78382;SDS011;67668;52.294;4.692;2023-02-15T09:17:16;39.63;;;23.83;;
78382;SDS011;67668;52.294;4.692;2023-02-15T09:19:42;40.60;;;22.98;;
78382;SDS011;67668;52.294;4.692;2023-02-15T09:22:07;44.70;;;23.95;;
78382;SDS011;67668;52.294;4.692;2023-02-15T09:24:33;42.30;;;22.93;;
78382;SDS011;67668;52.294;4.692;2023-02-15T09:29:24;38.97;;;21.23;;
78382;SDS011;67668;52.294;4.692;2023-02-15T09:31:50;36.57;;;21.33;;
78382;SDS011;67668;52.294;4.692;2023-02-15T09:34:18;40.72;;;22.25;;
78382;SDS011;67668;52.294;4.692;2023-02-15T09:36:45;42.22;;;24.35;;
78382;SDS011;67668;52.294;4.692;2023-02-15T09:39:45;42.75;;;22.83;;
78382;SDS011;67668;52.294;4.692;2023-02-15T10:01:45;45.22;;;26.13;;
78382;SDS011;67668;52.294;4.692;2023-02-15T10:04:34;45.58;;;25.30;;
78382;SDS011;67668;52.294;4.692;2023-02-15T10:18:29;46.65;;;27.30;;
78382;SDS011;67668;52.294;4.692;2023-02-15T10:21:17;52.53;;;27.08;;
78382;SDS011;67668;52.294;4.692;2023-02-15T10:26:22;51.67;;;29.50;;
78382;SDS011;67668;52.294;4.692;2023-02-15T10:34:24;44.25;;;27.13;;
78382;SDS011;67668;52.294;4.692;2023-02-15T10:39:40;51.15;;;28.08;;
78382;SDS011;67668;52.294;4.692;2023-02-15T10:44:47;51.43;;;28.47;;
78382;SDS011;67668;52.294;4.692;2023-02-15T10:47:33;52.05;;;26.77;;
78382;SDS011;67668;52.294;4.692;2023-02-15T10:50:37;47.05;;;26.13;;
78382;SDS011;67668;52.294;4.692;2023-02-15T11:07:45;50.40;;;25.77;;
78382;SDS011;67668;52.294;4.692;2023-02-15T11:12:58;49.20;;;27.52;;
78382;SDS011;67668;52.294;4.692;2023-02-15T11:18:05;56.58;;;29.80;;
78382;SDS011;67668;52.294;4.692;2023-02-15T11:25:46;49.55;;;25.58;;
78382;SDS011;67668;52.294;4.692;2023-02-15T11:28:22;48.67;;;25.40;;
78382;SDS011;67668;52.294;4.692;2023-02-15T11:30:54;50.20;;;28.00;;
78382;SDS011;67668;52.294;4.692;2023-02-15T11:33:22;49.28;;;28.58;;
78382;SDS011;67668;52.294;4.692;2023-02-15T11:35:56;49.92;;;27.90;;
78382;SDS011;67668;52.294;4.692;2023-02-15T11:38:27;49.95;;;27.85;;
78382;SDS011;67668;52.294;4.692;2023-02-15T11:40:57;55.10;;;28.20;;
78382;SDS011;67668;52.294;4.692;2023-02-15T11:45:54;51.50;;;27.52;;
78382;SDS011;67668;52.294;4.692;2023-02-15T11:48:19;52.08;;;28.33;;
78382;SDS011;67668;52.294;4.692;2023-02-15T11:53:15;45.80;;;28.20;;
78382;SDS011;67668;52.294;4.692;2023-02-15T11:55:52;48.35;;;27.52;;
78382;SDS011;67668;52.294;4.692;2023-02-15T11:58:28;50.10;;;28.95;;
78382;SDS011;67668;52.294;4.692;2023-02-15T12:01:44;52.70;;;28.95;;
78382;SDS011;67668;52.294;4.692;2023-02-15T12:04:09;46.65;;;26.42;;
78382;SDS011;67668;52.294;4.692;2023-02-15T12:06:41;52.90;;;28.75;;
78382;SDS011;67668;52.294;4.692;2023-02-15T12:11:39;51.88;;;28.50;;
78382;SDS011;67668;52.294;4.692;2023-02-15T12:14:06;58.90;;;30.75;;
78382;SDS011;67668;52.294;4.692;2023-02-15T12:16:39;54.15;;;29.33;;
78382;SDS011;67668;52.294;4.692;2023-02-15T12:19:11;53.88;;;29.10;;
78382;SDS011;67668;52.294;4.692;2023-02-15T12:21:58;56.20;;;28.08;;
78382;SDS011;67668;52.294;4.692;2023-02-15T12:24:28;54.08;;;28.95;;
78382;SDS011;67668;52.294;4.692;2023-02-15T12:27:19;53.15;;;28.88;;
78382;SDS011;67668;52.294;4.692;2023-02-15T12:32:30;50.80;;;28.55;;
78382;SDS011;67668;52.294;4.692;2023-02-15T12:35:08;51.13;;;29.33;;
78382;SDS011;67668;52.294;4.692;2023-02-15T12:37:40;51.65;;;28.67;;
78382;SDS011;67668;52.294;4.692;2023-02-15T12:40:22;51.78;;;29.42;;
78382;SDS011;67668;52.294;4.692;2023-02-15T12:42:51;53.53;;;28.55;;
78382;SDS011;67668;52.294;4.692;2023-02-15T12:45:29;48.67;;;28.47;;
78382;SDS011;67668;52.294;4.692;2023-02-15T12:48:09;51.92;;;29.35;;
78382;SDS011;67668;52.294;4.692;2023-02-15T12:50:38;60.17;;;30.58;;
78382;SDS011;67668;52.294;4.692;2023-02-15T12:53:06;51.55;;;30.00;;
78382;SDS011;67668;52.294;4.692;2023-02-15T13:01:16;53.17;;;29.95;;
78382;SDS011;67668;52.294;4.692;2023-02-15T13:04:05;53.45;;;29.23;;
78382;SDS011;67668;52.294;4.692;2023-02-15T13:06:45;53.92;;;28.58;;
78382;SDS011;67668;52.294;4.692;2023-02-15T13:11:50;52.85;;;29.75;;
78382;SDS011;67668;52.294;4.692;2023-02-15T13:14:20;52.13;;;26.92;;
78382;SDS011;67668;52.294;4.692;2023-02-15T13:16:50;47.72;;;26.38;;
78382;SDS011;67668;52.294;4.692;2023-02-15T13:19:19;50.15;;;27.67;;
78382;SDS011;67668;52.294;4.692;2023-02-15T13:22:03;54.25;;;28.67;;
78382;SDS011;67668;52.294;4.692;2023-02-15T13:27:05;49.38;;;28.90;;
78382;SDS011;67668;52.294;4.692;2023-02-15T13:29:38;48.15;;;28.73;;
78382;SDS011;67668;52.294;4.692;2023-02-15T13:32:15;51.70;;;27.45;;
78382;SDS011;67668;52.294;4.692;2023-02-15T13:35:02;51.00;;;28.20;;
78382;SDS011;67668;52.294;4.692;2023-02-15T13:40:33;47.83;;;27.55;;
78382;SDS011;67668;52.294;4.692;2023-02-15T13:46:04;49.42;;;29.10;;
78382;SDS011;67668;52.294;4.692;2023-02-15T13:49:14;52.55;;;29.73;;
78382;SDS011;67668;52.294;4.692;2023-02-15T13:54:28;48.90;;;27.75;;
78382;SDS011;67668;52.294;4.692;2023-02-15T13:57:26;48.60;;;28.80;;
78382;SDS011;67668;52.294;4.692;2023-02-15T14:02:35;55.90;;;27.02;;
78382;SDS011;67668;52.294;4.692;2023-02-15T14:05:26;45.10;;;26.40;;
78382;SDS011;67668;52.294;4.692;2023-02-15T14:10:54;49.75;;;26.73;;
78382;SDS011;67668;52.294;4.692;2023-02-15T14:13:31;51.25;;;26.58;;
78382;SDS011;67668;52.294;4.692;2023-02-15T14:19:27;56.75;;;28.23;;
78382;SDS011;67668;52.294;4.692;2023-02-15T14:21:40;47.90;;;26.50;;
78382;SDS011;67668;52.294;4.692;2023-02-15T14:24:17;48.58;;;27.40;;
78382;SDS011;67668;52.294;4.692;2023-02-15T14:32:30;51.60;;;29.42;;
78382;SDS011;67668;52.294;4.692;2023-02-15T14:35:02;44.38;;;26.73;;
78382;SDS011;67668;52.294;4.692;2023-02-15T14:40:24;45.92;;;25.58;;
78382;SDS011;67668;52.294;4.692;2023-02-15T14:45:55;46.13;;;24.42;;
78382;SDS011;67668;52.294;4.692;2023-02-15T14:48:31;44.95;;;25.00;;
78382;SDS011;67668;52.294;4.692;2023-02-15T14:51:03;45.70;;;23.52;;
78382;SDS011;67668;52.294;4.692;2023-02-15T14:58:35;48.45;;;25.33;;
78382;SDS011;67668;52.294;4.692;2023-02-15T15:01:07;49.25;;;25.10;;
78382;SDS011;67668;52.294;4.692;2023-02-15T15:03:35;43.25;;;25.73;;
78382;SDS011;67668;52.294;4.692;2023-02-15T15:06:20;41.80;;;23.67;;
78382;SDS011;67668;52.294;4.692;2023-02-15T15:08:51;46.30;;;24.33;;
78382;SDS011;67668;52.294;4.692;2023-02-15T15:13:57;44.78;;;25.50;;
78382;SDS011;67668;52.294;4.692;2023-02-15T15:18:52;46.92;;;24.27;;
78382;SDS011;67668;52.294;4.692;2023-02-15T15:24:45;44.78;;;25.63;;
78382;SDS011;67668;52.294;4.692;2023-02-15T15:32:38;45.88;;;25.75;;
78382;SDS011;67668;52.294;4.692;2023-02-15T15:40:55;46.80;;;24.27;;
78382;SDS011;67668;52.294;4.692;2023-02-15T15:49:14;43.28;;;23.17;;
78382;SDS011;67668;52.294;4.692;2023-02-15T15:51:42;44.78;;;24.60;;
78382;SDS011;67668;52.294;4.692;2023-02-15T15:54:20;36.72;;;22.67;;
78382;SDS011;67668;52.294;4.692;2023-02-15T16:01:47;42.33;;;23.10;;
78382;SDS011;67668;52.294;4.692;2023-02-15T16:04:14;36.75;;;22.20;;
78382;SDS011;67668;52.294;4.692;2023-02-15T16:06:56;42.38;;;22.90;;
78382;SDS011;67668;52.294;4.692;2023-02-15T16:09:23;39.40;;;23.10;;
78382;SDS011;67668;52.294;4.692;2023-02-15T16:11:51;36.13;;;22.60;;
78382;SDS011;67668;52.294;4.692;2023-02-15T16:14:39;38.47;;;24.10;;
78382;SDS011;67668;52.294;4.692;2023-02-15T16:17:06;40.63;;;23.27;;
78382;SDS011;67668;52.294;4.692;2023-02-15T16:19:39;38.20;;;22.63;;
78382;SDS011;67668;52.294;4.692;2023-02-15T16:22:13;40.92;;;22.92;;
78382;SDS011;67668;52.294;4.692;2023-02-15T16:24:48;42.40;;;24.50;;
78382;SDS011;67668;52.294;4.692;2023-02-15T16:27:48;41.65;;;22.83;;
78382;SDS011;67668;52.294;4.692;2023-02-15T16:32:43;41.40;;;24.02;;
78382;SDS011;67668;52.294;4.692;2023-02-15T16:35:13;39.88;;;23.05;;
78382;SDS011;67668;52.294;4.692;2023-02-15T16:37:40;42.13;;;23.83;;
78382;SDS011;67668;52.294;4.692;2023-02-15T16:40:06;45.57;;;24.47;;
78382;SDS011;67668;52.294;4.692;2023-02-15T16:42:31;42.67;;;23.15;;
78382;SDS011;67668;52.294;4.692;2023-02-15T16:47:40;42.40;;;23.58;;
78382;SDS011;67668;52.294;4.692;2023-02-15T16:50:16;41.67;;;23.67;;
78382;SDS011;67668;52.294;4.692;2023-02-15T16:52:44;44.35;;;26.02;;
78382;SDS011;67668;52.294;4.692;2023-02-15T16:55:31;42.47;;;24.52;;
78382;SDS011;67668;52.294;4.692;2023-02-15T16:58:02;41.55;;;23.77;;
78382;SDS011;67668;52.294;4.692;2023-02-15T17:00:32;45.63;;;25.08;;
78382;SDS011;67668;52.294;4.692;2023-02-15T17:03:02;42.25;;;23.48;;
78382;SDS011;67668;52.294;4.692;2023-02-15T17:05:45;41.97;;;24.30;;
78382;SDS011;67668;52.294;4.692;2023-02-15T17:10:41;42.20;;;24.23;;
78382;SDS011;67668;52.294;4.692;2023-02-15T17:13:15;38.67;;;22.23;;
78382;SDS011;67668;52.294;4.692;2023-02-15T17:18:44;41.53;;;23.13;;
78382;SDS011;67668;52.294;4.692;2023-02-15T17:21:18;42.45;;;23.13;;
78382;SDS011;67668;52.294;4.692;2023-02-15T17:26:16;37.20;;;21.85;;
78382;SDS011;67668;52.294;4.692;2023-02-15T17:28:46;46.47;;;23.40;;
78382;SDS011;67668;52.294;4.692;2023-02-15T17:31:16;46.92;;;26.00;;
78382;SDS011;67668;52.294;4.692;2023-02-15T17:33:43;42.45;;;24.27;;
78382;SDS011;67668;52.294;4.692;2023-02-15T17:36:19;45.55;;;25.15;;
78382;SDS011;67668;52.294;4.692;2023-02-15T17:41:23;48.95;;;26.77;;
78382;SDS011;67668;52.294;4.692;2023-02-15T17:43:50;43.45;;;25.48;;
78382;SDS011;67668;52.294;4.692;2023-02-15T17:46:15;43.67;;;24.58;;
78382;SDS011;67668;52.294;4.692;2023-02-15T17:48:45;42.97;;;25.75;;
78382;SDS011;67668;52.294;4.692;2023-02-15T17:51:13;45.67;;;26.15;;
78382;SDS011;67668;52.294;4.692;2023-02-15T17:53:40;47.90;;;24.38;;
78382;SDS011;67668;52.294;4.692;2023-02-15T17:56:26;41.88;;;24.73;;
78382;SDS011;67668;52.294;4.692;2023-02-15T17:58:51;46.67;;;25.92;;
78382;SDS011;67668;52.294;4.692;2023-02-15T18:01:17;45.00;;;25.25;;
78382;SDS011;67668;52.294;4.692;2023-02-15T18:04:03;47.05;;;26.55;;
78382;SDS011;67668;52.294;4.692;2023-02-15T18:06:49;42.78;;;25.45;;
78382;SDS011;67668;52.294;4.692;2023-02-15T18:09:33;47.00;;;26.40;;
78382;SDS011;67668;52.294;4.692;2023-02-15T18:17:16;47.03;;;25.65;;
78382;SDS011;67668;52.294;4.692;2023-02-15T18:19:43;46.28;;;26.30;;
78382;SDS011;67668;52.294;4.692;2023-02-15T18:22:10;51.47;;;26.75;;
78382;SDS011;67668;52.294;4.692;2023-02-15T18:24:37;49.95;;;28.50;;
78382;SDS011;67668;52.294;4.692;2023-02-15T18:27:02;42.97;;;25.23;;
78382;SDS011;67668;52.294;4.692;2023-02-15T18:29:28;42.72;;;25.70;;
78382;SDS011;67668;52.294;4.692;2023-02-15T18:31:54;44.33;;;25.80;;
78382;SDS011;67668;52.294;4.692;2023-02-15T18:34:26;45.38;;;27.00;;